Overview Statistics Trail Chart Weather Telemetry Raw packets
 

This is the latest recevied weather packets stored in our database for station/object OH2MUI. If no packets are shown the sender has not sent any weather packets the latest 10 day(s).

<< 1 2 3 4 5 6 >>
Time Temp. Humidity Pressure Rain* Wind** Luminosity Snow
1788526817 13.33° C 93% 998 hPa 0 mm - - -
1788525680 12.78° C 93% 998.4 hPa 0.25 mm - - -
1788524586 12.22° C 91% 998.4 hPa 0.51 mm - - -
1788523560 11.67° C 96% 998.6 hPa 2.79 mm - - -
1788522470 11.67° C 94% 998.6 hPa 3.3 mm - - -
1788521495 11.67° C 95% 998.7 hPa 3.05 mm - - -
1788520451 12.22° C - - 1.52 mm - - -
1788520448 12.22° C 94% 999.2 hPa 1.52 mm - - -
1788519266 15.56° C 77% 998.5 hPa 0 mm - - -
1788518214 16.11° C 61% 998.1 hPa 0 mm - - -
1788517170 16.67° C 61% 998.3 hPa 0 mm - - -
1788516070 16.67° C 62% 998.3 hPa 0 mm - - -
1788515025 16.67° C 62% 998.4 hPa 0 mm - - -
1788513986 16.11° C 63% 998.7 hPa 0 mm - - -
1788513003 15.56° C 61% 998.8 hPa 0 mm - - -
1788511965 16.67° C 60% 999 hPa 0 mm - - -
1788511000 15.56° C 65% 998.7 hPa 0 mm - - -
1788509960 15.56° C 63% 998.9 hPa 0 mm - - -
1788508978 16.11° C 69% 999.1 hPa 0.25 mm - - -
1788507875 13.33° C 85% 999.2 hPa 0.25 mm - - -
1788506715 12.22° C 96% 999.2 hPa 0.25 mm - - -
1788505740 11.11° C 99% 999.3 hPa 0.25 mm - - -
1788504570 10.56° C 99% 999.6 hPa 0.25 mm - - -
1788503486 8.89° C 99% 1000 hPa 0 mm - - -
1788502325 8.89° C 99% 1000.1 hPa 0.25 mm - - -

* Rain latest hour (hover to see other rain measurements)
** Current wind speed in m/s (hover to see current wind gust speed)